Sao Goncalo do Abaete, Brazil
Current Conditions -  °F | °C
As of 1:00 PM on Friday 24 Oct 2014 (Local Time) from SBLS Reporting Station
Scattered Clouds Scattered Clouds  
Wind Chill: 82°   Ceiling: Unl
Heat Index: 82°   Visibility: 6mi
Dew Point: 54°   Wind: 6mph
Humidity: 37%   Direction: 120°ESE
Pressure: 30.06"   Gusts: NA
Location:  18.34°S, 45.83°W
Report Text: SBLS 241500Z 12005KT 080V210 9999 SCT030 28/12 Q1018
Loading
Personal Weather Stations






























Interactive Weather Map
Tropical Storm Tracking
New forecast layout! Learn more

10-Day Weather Forecast

Advertisements
Track Severe Weather on mobile